createdAt,value
2022-10-31T00:00:48.623Z,22.65
2022-10-31T00:03:18.115Z,21.52
2022-10-31T00:05:47.552Z,21.58
2022-10-31T00:08:15.738Z,20.67
2022-10-31T00:10:45.060Z,20.00
2022-10-31T00:13:14.863Z,21.88
2022-10-31T00:15:42.852Z,21.67
2022-10-31T00:18:12.318Z,22.27
2022-10-31T00:20:41.586Z,19.80
2022-10-31T00:23:09.744Z,21.73
2022-10-31T00:25:39.691Z,21.35
2022-10-31T00:28:09.206Z,23.90
2022-10-31T00:30:37.098Z,21.33
2022-10-31T00:33:09.215Z,20.65
2022-10-31T00:35:37.102Z,19.15
2022-10-31T00:38:06.463Z,17.45
2022-10-31T00:40:34.324Z,18.50
2022-10-31T00:43:02.770Z,18.92
2022-10-31T00:45:31.074Z,20.90
2022-10-31T00:47:59.294Z,18.88
2022-10-31T00:50:27.481Z,19.80
2022-10-31T00:52:55.634Z,18.83
2022-10-31T00:55:24.893Z,21.00
2022-10-31T00:57:52.857Z,23.10
2022-10-31T01:00:20.950Z,20.85
2022-10-31T01:02:48.998Z,21.50
2022-10-31T01:05:17.090Z,20.88
2022-10-31T01:07:45.315Z,20.65
2022-10-31T01:10:13.449Z,22.10
2022-10-31T01:12:44.829Z,21.73
2022-10-31T01:15:14.759Z,21.70
2022-10-31T01:17:43.777Z,19.95
2022-10-31T01:20:14.314Z,22.48
2022-10-31T01:22:42.235Z,22.50
2022-10-31T01:25:11.225Z,22.25
2022-10-31T01:27:39.222Z,23.30
2022-10-31T01:30:09.713Z,23.15
2022-10-31T01:32:37.672Z,26.40
2022-10-31T01:35:06.037Z,26.55
2022-10-31T01:37:34.040Z,27.45
2022-10-31T01:40:01.950Z,24.75
2022-10-31T01:42:29.825Z,33.08
2022-10-31T01:45:01.457Z,32.55
2022-10-31T01:47:40.225Z,28.33
2022-10-31T01:50:15.783Z,27.73
2022-10-31T01:52:46.597Z,28.02
2022-10-31T01:55:17.874Z,26.23
2022-10-31T01:57:48.748Z,26.83
2022-10-31T02:00:19.986Z,25.75
2022-10-31T02:02:51.351Z,26.75
2022-10-31T02:05:22.305Z,26.75
2022-10-31T02:07:55.120Z,28.75
2022-10-31T02:10:25.081Z,31.33
2022-10-31T02:12:54.395Z,28.90
2022-10-31T02:15:22.329Z,28.80
2022-10-31T02:17:51.811Z,30.00
2022-10-31T02:20:22.540Z,26.95
2022-10-31T02:23:25.307Z,27.08
2022-10-31T02:26:26.214Z,28.63
2022-10-31T02:29:25.278Z,29.98
2022-10-31T02:32:01.321Z,31.52
2022-10-31T02:34:35.070Z,31.83
2022-10-31T02:37:13.817Z,31.48
2022-10-31T02:39:50.558Z,34.13
2022-10-31T02:42:26.045Z,32.75
2022-10-31T02:45:02.467Z,34.55
2022-10-31T02:47:38.711Z,34.60
2022-10-31T02:50:11.343Z,32.38
2022-10-31T02:52:39.218Z,31.75
2022-10-31T02:55:34.274Z,31.13
2022-10-31T02:58:06.547Z,30.77
2022-10-31T03:00:44.815Z,28.90
2022-10-31T03:03:21.563Z,28.75
2022-10-31T03:05:57.029Z,31.83
2022-10-31T03:08:29.470Z,30.42
2022-10-31T03:13:35.253Z,32.13
2022-10-31T03:16:10.624Z,31.90
2022-10-31T03:18:45.881Z,31.35
2022-10-31T03:21:19.697Z,35.53
2022-10-31T03:23:49.330Z,35.15
2022-10-31T03:26:18.882Z,39.05
2022-10-31T03:28:50.871Z,37.47
2022-10-31T03:31:21.305Z,45.75
2022-10-31T03:33:53.009Z,57.15
2022-10-31T03:36:22.209Z,63.63
2022-10-31T03:38:50.604Z,56.33
2022-10-31T03:41:22.188Z,53.72
2022-10-31T03:43:57.005Z,55.23
2022-10-31T03:46:25.986Z,51.40
2022-10-31T03:48:55.542Z,47.83
2022-10-31T03:51:26.805Z,51.28
2022-10-31T03:53:58.599Z,47.88
2022-10-31T03:56:33.562Z,46.05
2022-10-31T03:59:06.341Z,45.88
2022-10-31T04:01:39.887Z,44.10
2022-10-31T04:04:10.082Z,47.05
2022-10-31T04:06:40.856Z,48.22
2022-10-31T04:09:11.316Z,53.95
2022-10-31T04:11:45.948Z,53.15
2022-10-31T04:14:14.149Z,52.67
2022-10-31T04:16:44.978Z,52.67
2022-10-31T04:19:14.876Z,53.00
2022-10-31T04:21:44.287Z,54.92
2022-10-31T04:24:12.825Z,50.95
2022-10-31T04:26:40.712Z,51.65
2022-10-31T04:29:08.613Z,52.15
2022-10-31T04:31:36.510Z,52.45
2022-10-31T04:34:04.413Z,52.88
2022-10-31T04:36:33.645Z,53.85
2022-10-31T04:39:01.528Z,54.90
2022-10-31T04:41:29.404Z,53.90
2022-10-31T04:43:57.269Z,51.83
2022-10-31T04:46:25.250Z,54.65
2022-10-31T04:48:53.135Z,52.63
2022-10-31T04:51:21.013Z,52.95
2022-10-31T04:53:50.253Z,58.15
2022-10-31T04:56:18.182Z,57.25
2022-10-31T04:58:46.252Z,59.00
2022-10-31T05:01:15.303Z,60.00
2022-10-31T05:03:43.306Z,55.83
2022-10-31T05:06:11.206Z,59.20
2022-10-31T05:08:39.101Z,58.22
2022-10-31T05:11:08.329Z,60.97
2022-10-31T05:13:36.458Z,59.47
2022-10-31T05:16:04.365Z,59.15
2022-10-31T05:18:32.250Z,57.22
2022-10-31T05:21:00.132Z,57.33
2022-10-31T05:23:28.044Z,60.47
2022-10-31T05:25:55.988Z,61.20
2022-10-31T05:28:25.284Z,60.28
2022-10-31T05:30:53.224Z,61.90
2022-10-31T05:33:21.089Z,61.13
2022-10-31T05:35:49.056Z,56.58
2022-10-31T05:38:16.924Z,62.40
2022-10-31T05:40:44.851Z,57.38
2022-10-31T05:43:12.980Z,60.60
2022-10-31T05:45:42.253Z,55.80
2022-10-31T05:48:10.622Z,53.97
2022-10-31T05:50:38.494Z,56.80
2022-10-31T05:53:07.374Z,61.20
2022-10-31T05:55:35.294Z,59.10
2022-10-31T05:58:03.534Z,60.88
2022-10-31T06:00:32.080Z,56.72
2022-10-31T06:03:02.326Z,56.72
2022-10-31T06:05:30.820Z,52.53
2022-10-31T06:07:59.677Z,55.95
2022-10-31T06:10:28.249Z,54.65
2022-10-31T06:12:56.184Z,55.88
2022-10-31T06:15:24.949Z,60.88
2022-10-31T06:18:05.634Z,63.75
2022-10-31T06:20:34.115Z,63.90
2022-10-31T06:23:02.810Z,63.78
2022-10-31T06:25:31.158Z,68.63
2022-10-31T06:27:59.280Z,59.53
2022-10-31T06:30:27.561Z,62.22
2022-10-31T06:32:56.576Z,61.00
2022-10-31T06:35:25.849Z,65.00
2022-10-31T06:37:54.354Z,55.88
2022-10-31T06:40:22.707Z,62.28
2022-10-31T06:42:58.660Z,64.72
2022-10-31T06:45:26.608Z,63.60
2022-10-31T06:48:15.971Z,67.75
2022-10-31T06:50:43.972Z,69.32
2022-10-31T06:53:12.398Z,65.85
2022-10-31T06:55:40.501Z,62.35
2022-10-31T06:58:09.182Z,65.38
2022-10-31T07:00:38.065Z,71.85
2022-10-31T07:03:07.851Z,71.07
2022-10-31T07:05:35.749Z,69.43
2022-10-31T07:08:06.864Z,74.72
2022-10-31T07:10:40.106Z,73.32
2022-10-31T07:13:12.083Z,77.45
2022-10-31T07:15:41.091Z,75.97
2022-10-31T07:18:11.061Z,81.05
2022-10-31T07:20:39.546Z,85.90
2022-10-31T07:23:09.631Z,84.47
2022-10-31T07:25:37.488Z,88.65
2022-10-31T07:28:05.549Z,96.65
2022-10-31T07:30:33.720Z,97.75
2022-10-31T07:33:01.633Z,110.85
2022-10-31T07:35:30.992Z,117.18
2022-10-31T07:37:59.854Z,121.30
2022-10-31T07:40:31.803Z,127.15
2022-10-31T07:43:00.260Z,130.27
2022-10-31T07:45:28.131Z,138.18
2022-10-31T07:47:56.085Z,143.88
2022-10-31T07:50:25.468Z,151.82
2022-10-31T07:53:00.868Z,146.48
2022-10-31T07:55:31.251Z,147.00
2022-10-31T07:58:01.073Z,157.00
2022-10-31T08:00:29.236Z,150.82
2022-10-31T08:03:01.572Z,154.80
2022-10-31T08:07:59.794Z,150.38
2022-10-31T08:10:30.047Z,150.77
2022-10-31T08:12:59.661Z,151.23
2022-10-31T08:15:28.226Z,154.30
2022-10-31T08:17:56.346Z,161.90
2022-10-31T08:20:24.535Z,165.85
2022-10-31T08:22:57.446Z,158.23
2022-10-31T08:25:27.024Z,168.82
2022-10-31T08:27:58.212Z,165.60
2022-10-31T08:30:29.189Z,168.35
2022-10-31T08:33:01.693Z,163.80
2022-10-31T08:37:58.456Z,172.40
2022-10-31T08:40:27.861Z,178.75
2022-10-31T08:43:01.563Z,177.43
2022-10-31T08:45:29.994Z,187.82
2022-10-31T08:48:01.535Z,183.43
2022-10-31T08:50:31.383Z,182.35
2022-10-31T08:53:05.886Z,184.02
2022-10-31T08:55:35.721Z,191.65
2022-10-31T08:58:06.358Z,190.23
2022-10-31T09:00:34.578Z,192.05
2022-10-31T09:03:04.052Z,181.65
2022-10-31T09:05:33.369Z,180.95
2022-10-31T09:08:03.053Z,175.70
2022-10-31T09:10:32.826Z,171.60
2022-10-31T09:13:02.191Z,172.18
2022-10-31T09:15:32.294Z,166.77
2022-10-31T09:18:00.661Z,161.15
2022-10-31T09:20:29.278Z,158.02
2022-10-31T09:22:59.155Z,155.98
2022-10-31T09:25:27.782Z,159.32
2022-10-31T09:27:59.828Z,167.43
2022-10-31T09:33:06.849Z,150.63
2022-10-31T09:35:34.995Z,145.52
2022-10-31T09:38:05.055Z,144.27
2022-10-31T09:40:36.570Z,136.50
2022-10-31T09:43:14.952Z,138.40
2022-10-31T09:45:50.529Z,131.77
2022-10-31T09:48:56.211Z,118.03
2022-10-31T09:51:30.183Z,110.18
2022-10-31T09:54:04.132Z,103.57
2022-10-31T09:56:34.147Z,91.18
2022-10-31T09:59:05.294Z,82.88
2022-10-31T10:01:41.932Z,76.47
2022-10-31T10:04:26.713Z,74.68
2022-10-31T10:06:54.890Z,72.38
2022-10-31T10:09:27.071Z,68.22
2022-10-31T10:12:07.233Z,69.00
2022-10-31T10:14:50.275Z,72.35
2022-10-31T10:17:28.423Z,68.30
2022-10-31T10:20:13.849Z,73.53
2022-10-31T10:22:49.700Z,72.50
2022-10-31T10:25:24.252Z,76.03
2022-10-31T10:28:04.270Z,75.50
2022-10-31T10:30:37.876Z,66.72
2022-10-31T10:33:11.440Z,66.22
2022-10-31T10:35:45.912Z,63.92
2022-10-31T10:38:22.616Z,62.25
2022-10-31T10:40:50.929Z,63.15
2022-10-31T10:43:23.317Z,55.80
2022-10-31T10:48:45.340Z,50.08
2022-10-31T10:51:39.132Z,41.78
2022-10-31T10:54:41.115Z,33.72
2022-10-31T10:57:22.231Z,37.80
2022-10-31T10:59:50.418Z,35.60
2022-10-31T11:02:20.475Z,29.35
2022-10-31T11:04:52.743Z,26.05
2022-10-31T11:09:49.813Z,26.50
2022-10-31T11:12:23.957Z,24.42
2022-10-31T11:14:55.418Z,23.20
2022-10-31T11:17:31.399Z,25.00
2022-10-31T11:20:05.487Z,27.40
2022-10-31T11:22:34.761Z,29.33
2022-10-31T11:25:02.650Z,32.42
2022-10-31T11:27:30.606Z,33.65
2022-10-31T11:30:07.002Z,35.40
2022-10-31T11:32:35.009Z,33.95
2022-10-31T11:35:10.792Z,32.83
2022-10-31T11:37:45.693Z,34.22
2022-10-31T11:40:19.954Z,35.03
2022-10-31T11:42:49.201Z,33.10
2022-10-31T11:45:19.181Z,34.38
2022-10-31T11:47:54.016Z,35.08
2022-10-31T11:50:26.988Z,35.70
2022-10-31T11:52:57.141Z,35.63
2022-10-31T11:55:34.561Z,37.95
2022-10-31T11:58:03.178Z,37.90
2022-10-31T12:00:33.388Z,34.78
2022-10-31T12:03:14.492Z,36.33
2022-10-31T12:05:45.745Z,35.72
2022-10-31T12:08:15.934Z,35.85
2022-10-31T12:10:53.227Z,37.25
2022-10-31T12:13:35.994Z,39.38
2022-10-31T12:16:13.584Z,39.17
2022-10-31T12:18:55.174Z,40.67
2022-10-31T12:21:49.457Z,38.97
2022-10-31T12:24:29.896Z,39.03
2022-10-31T12:27:09.585Z,38.30
2022-10-31T12:30:04.454Z,39.00
2022-10-31T12:32:42.688Z,37.35
2022-10-31T12:35:28.133Z,34.10
2022-10-31T12:38:17.722Z,34.42
2022-10-31T12:41:01.230Z,35.63
2022-10-31T12:43:38.452Z,35.90
2022-10-31T12:46:11.934Z,36.45
2022-10-31T12:48:55.509Z,35.47
2022-10-31T12:51:35.065Z,31.45
2022-10-31T12:54:18.626Z,29.70
2022-10-31T12:56:57.445Z,32.08
2022-10-31T12:59:31.879Z,31.15
2022-10-31T13:02:04.026Z,29.90
2022-10-31T13:04:42.133Z,30.45
2022-10-31T13:07:17.694Z,30.42
2022-10-31T13:09:50.202Z,29.60
2022-10-31T13:12:22.810Z,31.50
2022-10-31T13:14:54.287Z,29.95
2022-10-31T13:17:30.028Z,27.27
2022-10-31T13:20:15.629Z,27.98
2022-10-31T13:22:47.737Z,28.10
2022-10-31T13:25:19.711Z,27.92
2022-10-31T13:27:53.342Z,28.38
2022-10-31T13:30:23.415Z,28.35
2022-10-31T13:32:56.614Z,28.50
2022-10-31T13:35:31.142Z,29.83
2022-10-31T13:38:11.094Z,29.52
2022-10-31T13:40:46.678Z,30.17
2022-10-31T13:43:27.987Z,31.77
2022-10-31T13:45:57.310Z,31.83
2022-10-31T13:48:38.248Z,31.50
2022-10-31T13:51:10.148Z,31.67
2022-10-31T13:53:45.009Z,30.85
2022-10-31T13:56:24.564Z,30.30
2022-10-31T13:59:02.128Z,32.05
2022-10-31T14:01:31.042Z,31.17
2022-10-31T14:04:12.635Z,32.53
2022-10-31T14:06:47.442Z,32.60
2022-10-31T14:09:23.821Z,33.50
2022-10-31T14:11:52.763Z,33.88
2022-10-31T14:14:24.526Z,33.42
2022-10-31T14:16:58.258Z,36.30
2022-10-31T14:19:27.962Z,38.03
2022-10-31T14:21:58.354Z,36.75
2022-10-31T14:24:38.241Z,37.20
2022-10-31T14:27:22.655Z,38.08
2022-10-31T14:29:52.119Z,39.72
2022-10-31T14:32:24.330Z,39.05
2022-10-31T14:37:49.261Z,41.85
2022-10-31T14:40:28.760Z,41.17
2022-10-31T14:43:18.443Z,42.97
2022-10-31T14:45:57.184Z,41.38
2022-10-31T14:48:55.506Z,43.35
2022-10-31T14:51:27.424Z,41.65
2022-10-31T14:53:57.431Z,41.97
2022-10-31T14:56:27.488Z,42.00
2022-10-31T14:58:57.697Z,42.25
2022-10-31T15:01:29.863Z,43.63
2022-10-31T15:06:53.653Z,42.58
2022-10-31T15:09:25.998Z,44.10
2022-10-31T15:11:54.328Z,43.95
2022-10-31T15:14:26.138Z,42.17
2022-10-31T15:16:56.285Z,42.40
2022-10-31T15:19:26.298Z,45.05
2022-10-31T15:21:56.438Z,45.33
2022-10-31T15:24:26.803Z,45.00
2022-10-31T15:26:59.726Z,44.17
2022-10-31T15:29:31.996Z,45.75
2022-10-31T15:32:11.369Z,46.05
2022-10-31T15:34:41.121Z,45.28
2022-10-31T15:37:14.730Z,48.53
2022-10-31T15:39:42.810Z,47.35
2022-10-31T15:42:20.468Z,49.15
2022-10-31T15:44:51.509Z,46.83
2022-10-31T15:47:23.155Z,46.67
2022-10-31T15:49:53.617Z,46.67
2022-10-31T15:52:30.618Z,48.20
2022-10-31T15:55:01.923Z,46.47
2022-10-31T15:57:29.996Z,48.47
2022-10-31T15:59:58.250Z,48.65
2022-10-31T16:02:29.501Z,47.40
2022-10-31T16:05:00.423Z,46.13
2022-10-31T16:07:29.859Z,46.80
2022-10-31T16:09:59.710Z,47.42
2022-10-31T16:12:32.307Z,48.15
2022-10-31T16:15:00.257Z,49.42
2022-10-31T16:17:30.166Z,47.40
2022-10-31T16:20:01.985Z,47.60
2022-10-31T16:22:32.771Z,46.05
2022-10-31T16:25:06.980Z,47.15
2022-10-31T16:27:37.910Z,46.72
2022-10-31T16:30:31.605Z,44.92
2022-10-31T16:33:02.494Z,44.83
2022-10-31T16:35:36.494Z,49.20
2022-10-31T16:38:04.731Z,50.03
2022-10-31T16:40:33.792Z,47.65
2022-10-31T16:43:03.084Z,48.28
2022-10-31T16:45:33.301Z,45.85
2022-10-31T16:48:06.075Z,49.45
2022-10-31T16:50:34.497Z,50.05
2022-10-31T16:53:17.725Z,48.20
2022-10-31T16:55:48.041Z,48.13
2022-10-31T16:58:23.607Z,49.05
2022-10-31T17:00:52.060Z,48.97
2022-10-31T17:03:22.044Z,47.10
2022-10-31T17:05:50.183Z,48.20
2022-10-31T17:08:18.432Z,45.97
2022-10-31T17:10:47.763Z,45.97
2022-10-31T17:13:20.743Z,45.53
2022-10-31T17:15:52.296Z,42.83
2022-10-31T17:18:26.064Z,42.03
2022-10-31T17:20:59.647Z,44.67
2022-10-31T17:23:28.141Z,41.78
2022-10-31T17:25:56.254Z,41.58
2022-10-31T17:28:25.129Z,42.78
2022-10-31T17:30:54.741Z,38.45
2022-10-31T17:33:24.111Z,39.15
2022-10-31T17:35:52.105Z,39.40
2022-10-31T17:38:20.015Z,40.25
2022-10-31T17:43:20.838Z,36.55
2022-10-31T17:45:48.972Z,39.35
2022-10-31T17:48:16.869Z,37.55
2022-10-31T17:50:46.160Z,39.05
2022-10-31T17:53:14.080Z,36.60
2022-10-31T17:55:42.032Z,36.50
2022-10-31T17:58:12.274Z,36.22
2022-10-31T18:00:41.343Z,37.53
2022-10-31T18:03:09.539Z,37.13
2022-10-31T18:05:37.597Z,39.22
2022-10-31T18:08:06.973Z,36.92
2022-10-31T18:10:34.914Z,36.78
2022-10-31T18:13:03.206Z,37.30
2022-10-31T18:15:31.334Z,37.53
2022-10-31T18:17:59.530Z,36.25
2022-10-31T18:20:27.722Z,37.42
2022-10-31T18:22:55.711Z,38.88
2022-10-31T18:25:25.130Z,36.38
2022-10-31T18:27:53.055Z,37.10
2022-10-31T18:30:21.059Z,39.72
2022-10-31T18:32:51.157Z,40.40
2022-10-31T18:35:22.059Z,38.67
2022-10-31T18:37:49.987Z,40.72
2022-10-31T18:40:18.490Z,37.75
2022-10-31T18:42:47.885Z,38.75
2022-10-31T18:45:32.571Z,38.97
2022-10-31T18:48:01.915Z,39.00
2022-10-31T18:50:30.105Z,39.42
2022-10-31T18:52:58.229Z,41.72
2022-10-31T18:55:26.269Z,38.03
2022-10-31T18:57:57.226Z,38.28
2022-10-31T19:00:25.525Z,38.72
2022-10-31T19:02:56.361Z,39.53
2022-10-31T19:05:24.642Z,38.25
2022-10-31T19:07:52.626Z,38.67
2022-10-31T19:10:20.525Z,37.97
2022-10-31T19:12:48.456Z,39.08
2022-10-31T19:15:17.848Z,38.53
2022-10-31T19:17:46.573Z,37.80
2022-10-31T19:20:15.370Z,37.85
2022-10-31T19:22:43.345Z,39.30
2022-10-31T19:25:11.417Z,37.50
2022-10-31T19:27:40.038Z,36.05
2022-10-31T19:30:09.657Z,39.15
2022-10-31T19:32:39.308Z,36.15
2022-10-31T19:35:09.263Z,39.45
2022-10-31T19:37:37.598Z,34.72
2022-10-31T19:40:07.422Z,36.28
2022-10-31T19:42:35.598Z,36.78
2022-10-31T19:45:03.674Z,39.22
2022-10-31T19:47:31.700Z,36.50
2022-10-31T19:50:00.971Z,36.33
2022-10-31T19:52:28.976Z,34.33
2022-10-31T19:54:56.918Z,35.80
2022-10-31T19:57:48.360Z,35.78
2022-10-31T20:00:13.988Z,38.17
2022-10-31T20:02:41.934Z,37.38
2022-10-31T20:05:11.433Z,37.78
2022-10-31T20:07:39.393Z,35.13
2022-10-31T20:10:08.700Z,36.22
2022-10-31T20:12:36.664Z,33.60
2022-10-31T20:15:05.048Z,33.17
2022-10-31T20:17:33.104Z,34.08
2022-10-31T20:20:02.947Z,36.80
2022-10-31T20:22:32.228Z,35.40
2022-10-31T20:25:00.408Z,33.45
2022-10-31T20:27:28.751Z,35.65
2022-10-31T20:29:56.885Z,32.20
2022-10-31T20:32:24.877Z,32.30
2022-10-31T20:34:52.856Z,32.70
2022-10-31T20:37:20.850Z,31.98
2022-10-31T20:39:52.660Z,31.15
2022-10-31T20:42:23.937Z,29.83
2022-10-31T20:44:54.638Z,29.60
2022-10-31T20:47:25.684Z,30.42
2022-10-31T20:49:53.916Z,30.05
2022-10-31T20:52:21.998Z,30.63
2022-10-31T20:54:51.309Z,28.02
2022-10-31T20:57:19.242Z,26.23
2022-10-31T20:59:47.208Z,28.25
2022-10-31T21:02:15.230Z,25.08
2022-10-31T21:04:43.472Z,29.27
2022-10-31T21:07:11.449Z,23.25
2022-10-31T21:09:39.376Z,21.85
2022-10-31T21:12:08.898Z,21.52
2022-10-31T21:14:37.695Z,20.77
2022-10-31T21:17:06.833Z,21.55
2022-10-31T21:19:36.201Z,20.67
2022-10-31T21:22:04.766Z,20.20
2022-10-31T21:24:32.712Z,19.02
2022-10-31T21:27:02.603Z,18.70
2022-10-31T21:29:32.233Z,20.20
2022-10-31T21:32:00.168Z,20.20
2022-10-31T21:34:28.119Z,19.58
2022-10-31T21:36:56.067Z,17.27
2022-10-31T21:39:23.992Z,18.92
2022-10-31T21:41:51.953Z,19.55
2022-10-31T21:44:19.996Z,15.18
2022-10-31T21:46:49.491Z,16.02
2022-10-31T21:49:17.494Z,16.77
2022-10-31T21:51:46.848Z,16.52
2022-10-31T21:54:30.047Z,17.23
2022-10-31T21:56:59.600Z,16.88
2022-10-31T21:59:28.179Z,16.00
2022-10-31T22:01:59.835Z,16.10
2022-10-31T22:04:28.305Z,20.42
2022-10-31T22:06:56.330Z,17.15
2022-10-31T22:09:24.387Z,21.95
2022-10-31T22:11:52.658Z,24.05
2022-10-31T22:14:20.597Z,21.25
2022-10-31T22:16:48.542Z,23.83
2022-10-31T22:19:17.795Z,24.77
2022-10-31T22:21:48.826Z,23.88
2022-10-31T22:24:18.413Z,26.10
2022-10-31T22:26:46.487Z,24.45
2022-10-31T22:29:16.393Z,25.40
2022-10-31T22:31:45.982Z,27.27
2022-10-31T22:34:15.238Z,27.30
2022-10-31T22:36:44.793Z,27.45
2022-10-31T22:39:14.245Z,27.65
2022-10-31T22:41:42.194Z,27.65
2022-10-31T22:44:10.448Z,30.10
2022-10-31T22:46:40.081Z,27.65
2022-10-31T22:49:10.934Z,30.70
2022-10-31T22:51:40.596Z,25.65
2022-10-31T22:54:13.797Z,29.00
2022-10-31T22:56:41.843Z,29.52
2022-10-31T22:59:12.865Z,28.52
2022-10-31T23:01:41.017Z,26.98
2022-10-31T23:06:38.406Z,29.58
2022-10-31T23:09:09.058Z,29.63
2022-10-31T23:11:40.147Z,29.98
2022-10-31T23:14:13.799Z,31.48
2022-10-31T23:16:47.487Z,28.33
2022-10-31T23:19:17.416Z,27.20
2022-10-31T23:21:56.490Z,31.30
2022-10-31T23:24:28.673Z,29.17
2022-10-31T23:27:06.746Z,29.38
2022-10-31T23:29:35.856Z,24.50
2022-10-31T23:32:04.833Z,26.80
2022-10-31T23:34:32.837Z,27.88
2022-10-31T23:37:00.799Z,32.58
2022-10-31T23:39:30.303Z,29.42
2022-10-31T23:41:58.231Z,29.02
2022-10-31T23:44:26.214Z,28.42
2022-10-31T23:46:54.198Z,25.67
2022-10-31T23:49:22.121Z,30.35
2022-10-31T23:51:50.058Z,27.50
2022-10-31T23:54:18.010Z,24.90
2022-10-31T23:56:47.310Z,27.98
2022-10-31T23:59:15.451Z,31.45
